Time;durP1;ratioP1;P1;durP2;ratioP2;P2;SDS_P1;SDS_P2;PMS_P1;PMS_P2;Temp;Humidity;BMP_temperature;BMP_pressure;BME280_temperature;BME280_humidity;BME280_pressure;Samples;Min_cycle;Max_cycle;Signal;HPM_P1;HPM_P2
2021/08/15 00:01:23;;;;;;;4.53;3.63;;;22.80;98.40;;;;;;5029638;28;20209;-70
2021/08/15 00:03:50;;;;;;;5.03;4.03;;;22.80;98.40;;;;;;5030137;28;20208;-70
2021/08/15 00:06:17;;;;;;;6.15;3.72;;;22.70;98.50;;;;;;5029508;28;20267;-70
2021/08/15 00:08:45;;;;;;;6.78;3.70;;;22.70;98.50;;;;;;5029556;28;20282;-70
2021/08/15 00:11:12;;;;;;;8.63;4.32;;;22.70;98.60;;;;;;5040088;28;20274;-70
2021/08/15 00:13:38;;;;;;;7.57;3.47;;;22.60;98.70;;;;;;5049721;28;20231;-70
2021/08/15 00:16:06;;;;;;;8.20;3.95;;;22.60;98.70;;;;;;5049585;28;20224;-70
2021/08/15 00:18:33;;;;;;;4.78;3.65;;;22.60;98.80;;;;;;5049579;28;20208;-70
2021/08/15 00:21:00;;;;;;;5.95;4.15;;;22.50;98.90;;;;;;5049522;28;20204;-69
2021/08/15 00:23:26;;;;;;;7.13;4.18;;;22.50;98.90;;;;;;5049321;28;20250;-69
2021/08/15 00:25:54;;;;;;;6.00;4.32;;;22.50;99.00;;;;;;5049439;28;20231;-69
2021/08/15 00:28:21;;;;;;;7.90;3.75;;;22.50;99.10;;;;;;5049215;28;20254;-68
2021/08/15 00:30:47;;;;;;;7.80;4.07;;;22.40;99.20;;;;;;5049671;28;20208;-70
2021/08/15 00:33:14;;;;;;;7.30;3.78;;;22.40;99.30;;;;;;5049442;28;20238;-70
2021/08/15 00:35:43;;;;;;;10.82;4.28;;;22.30;99.30;;;;;;5049405;28;20254;-70
2021/08/15 00:38:09;;;;;;;5.95;3.85;;;22.30;99.40;;;;;;5049328;28;20201;-70
2021/08/15 00:40:36;;;;;;;4.90;3.63;;;22.30;99.40;;;;;;5049286;28;20678;-70
2021/08/15 00:43:04;;;;;;;9.48;4.28;;;22.20;99.50;;;;;;5049423;28;20208;-69
2021/08/15 00:45:31;;;;;;;6.05;3.80;;;22.20;99.50;;;;;;5048407;28;20270;-70
2021/08/15 00:47:57;;;;;;;5.20;3.42;;;22.20;99.60;;;;;;5049201;28;20258;-70
2021/08/15 00:50:24;;;;;;;5.85;3.78;;;22.20;99.70;;;;;;5048960;28;20741;-70
2021/08/15 00:52:51;;;;;;;5.55;3.85;;;22.10;99.80;;;;;;5049090;28;20289;-70
2021/08/15 00:55:17;;;;;;;6.63;4.10;;;22.10;99.80;;;;;;5048881;28;20674;-70
2021/08/15 00:57:45;;;;;;;7.57;4.32;;;22.00;99.80;;;;;;5049081;28;20297;-70
2021/08/15 01:00:14;;;;;;;5.85;4.00;;;22.00;99.90;;;;;;5048669;28;20274;-69
2021/08/15 01:02:42;;;;;;;4.90;4.13;;;22.00;99.80;;;;;;5048533;28;21024;-69
2021/08/15 01:05:09;;;;;;;6.35;4.13;;;22.00;99.80;;;;;;5048996;28;20599;-70
2021/08/15 01:07:37;;;;;;;4.85;4.30;;;22.00;99.80;;;;;;5048387;28;20232;-69
2021/08/15 01:10:05;;;;;;;6.80;4.35;;;22.00;99.80;;;;;;5048953;28;20212;-69
2021/08/15 01:12:31;;;;;;;6.45;3.88;;;21.90;99.80;;;;;;5048193;28;20670;-69
2021/08/15 01:14:59;;;;;;;8.23;4.25;;;21.90;99.90;;;;;;5036057;28;20255;-69
2021/08/15 01:17:29;;;;;;;5.43;4.07;;;21.80;99.90;;;;;;5028946;28;20294;-69
2021/08/15 01:19:56;;;;;;;8.43;4.20;;;21.80;99.90;;;;;;5028596;28;20694;-69
2021/08/15 01:22:24;;;;;;;6.68;4.25;;;21.80;99.90;;;;;;5028728;28;20298;-69
2021/08/15 01:24:51;;;;;;;4.85;4.30;;;21.70;99.90;;;;;;5029057;28;20605;-69
2021/08/15 01:27:19;;;;;;;5.95;3.88;;;21.70;99.90;;;;;;5029075;28;20282;-69
2021/08/15 01:29:47;;;;;;;4.60;4.20;;;21.60;99.90;;;;;;5028574;28;20608;-69
2021/08/15 01:32:16;;;;;;;6.53;3.90;;;21.60;99.90;;;;;;5028826;28;20212;-69
2021/08/15 01:34:42;;;;;;;5.07;3.90;;;21.60;99.90;;;;;;5037288;28;20473;-68
2021/08/15 01:37:11;;;;;;;4.63;4.13;;;21.60;99.90;;;;;;5027802;28;20244;-68
2021/08/15 01:39:39;;;;;;;4.80;4.30;;;21.60;99.90;;;;;;5028552;28;20205;-70
2021/08/15 01:42:06;;;;;;;6.22;3.75;;;21.60;99.90;;;;;;5028562;28;20208;-70
2021/08/15 01:44:33;;;;;;;4.78;3.78;;;21.60;99.90;;;;;;5028477;28;20224;-70
2021/08/15 01:47:01;;;;;;;4.15;3.75;;;21.60;99.90;;;;;;5028711;28;20262;-71
2021/08/15 01:49:28;;;;;;;8.25;4.22;;;21.50;99.90;;;;;;5028695;28;20204;-70
2021/08/15 01:51:55;;;;;;;4.53;3.97;;;21.50;99.90;;;;;;5028806;28;20205;-70
2021/08/15 01:54:21;;;;;;;3.88;3.40;;;21.50;99.90;;;;;;5028696;28;20271;-70
2021/08/15 01:56:48;;;;;;;6.68;4.13;;;21.50;99.90;;;;;;5028467;28;20572;-71
2021/08/15 01:59:15;;;;;;;4.60;4.20;;;21.40;99.90;;;;;;5028310;28;20244;-71
2021/08/15 02:01:41;;;;;;;7.28;4.63;;;21.40;99.90;;;;;;5028279;28;20213;-71
2021/08/15 02:04:09;;;;;;;6.03;4.47;;;21.40;99.90;;;;;;5028671;28;20209;-71
2021/08/15 02:06:36;;;;;;;6.72;4.05;;;21.30;99.90;;;;;;5028304;28;20636;-71
2021/08/15 02:09:02;;;;;;;6.70;4.13;;;21.30;99.90;;;;;;5028470;28;20240;-70
2021/08/15 02:11:29;;;;;;;8.33;4.00;;;21.20;99.90;;;;;;5028090;28;20984;-71
2021/08/15 02:13:56;;;;;;;7.27;4.27;;;21.20;99.90;;;;;;5028390;28;20722;-71
2021/08/15 02:16:22;;;;;;;5.93;4.13;;;21.10;99.90;;;;;;5028377;28;20262;-69
2021/08/15 02:18:49;;;;;;;5.90;4.05;;;21.10;99.90;;;;;;5028392;28;20291;-69
2021/08/15 02:21:17;;;;;;;8.10;4.30;;;21.10;99.90;;;;;;5027933;28;20259;-70
2021/08/15 02:23:43;;;;;;;6.47;3.87;;;21.10;99.90;;;;;;5028135;28;20695;-69
2021/08/15 02:26:10;;;;;;;5.77;4.07;;;21.10;99.90;;;;;;5028111;28;20248;-70
2021/08/15 02:28:36;;;;;;;5.95;3.92;;;21.00;99.90;;;;;;5027533;28;20703;-70
2021/08/15 02:31:03;;;;;;;6.60;4.47;;;21.00;99.90;;;;;;5028005;28;20204;-70
2021/08/15 02:33:30;;;;;;;6.37;4.30;;;20.90;99.90;;;;;;5028097;28;20294;-70
2021/08/15 02:35:57;;;;;;;7.60;4.00;;;20.90;99.90;;;;;;5027980;28;20647;-70
2021/08/15 02:38:25;;;;;;;5.47;4.00;;;20.90;99.90;;;;;;5027728;28;20217;-70
2021/08/15 02:40:52;;;;;;;5.70;3.83;;;20.80;99.90;;;;;;5028066;28;20259;-70
2021/08/15 02:43:19;;;;;;;7.07;4.13;;;20.80;99.90;;;;;;5027900;28;20229;-70
2021/08/15 02:45:45;;;;;;;6.50;4.60;;;20.70;99.90;;;;;;5027731;28;20290;-71
2021/08/15 02:48:12;;;;;;;6.57;3.93;;;20.70;99.90;;;;;;5028054;28;20275;-71
2021/08/15 02:50:38;;;;;;;4.50;4.10;;;20.60;99.90;;;;;;5027914;28;20232;-71
2021/08/15 02:53:05;;;;;;;7.43;4.37;;;20.70;99.90;;;;;;5027663;28;20204;-70
2021/08/15 02:55:33;;;;;;;6.73;4.60;;;20.70;99.90;;;;;;5027808;28;20298;-69
2021/08/15 02:58:00;;;;;;;7.27;3.83;;;20.60;99.90;;;;;;5027536;28;20208;-70
2021/08/15 03:00:27;;;;;;;4.33;3.93;;;20.60;99.90;;;;;;5027349;28;20237;-70
2021/08/15 03:02:53;;;;;;;8.43;4.50;;;20.60;99.90;;;;;;5028110;28;20209;-70
2021/08/15 03:05:21;;;;;;;5.50;4.30;;;20.50;99.90;;;;;;5027577;28;20279;-70
2021/08/15 03:07:48;;;;;;;7.80;4.50;;;20.50;99.90;;;;;;5027596;28;20316;-70
2021/08/15 03:10:15;;;;;;;6.00;3.83;;;20.50;99.90;;;;;;5030063;28;20217;-70
2021/08/15 03:12:43;;;;;;;8.33;4.27;;;20.60;99.90;;;;;;5030893;28;20952;-69
2021/08/15 03:15:10;;;;;;;4.50;4.10;;;20.50;99.90;;;;;;5031324;28;20244;-69
2021/08/15 03:17:37;;;;;;;6.40;4.80;;;20.50;99.90;;;;;;5031217;28;20245;-69
2021/08/15 03:20:05;;;;;;;4.40;4.00;;;20.40;99.90;;;;;;5031093;28;20674;-69
2021/08/15 03:22:31;;;;;;;10.27;4.40;;;20.40;99.90;;;;;;5031027;28;20278;-69
2021/08/15 03:24:59;;;;;;;7.10;3.90;;;20.40;99.90;;;;;;5031190;28;20259;-70
2021/08/15 03:27:26;;;;;;;7.70;4.37;;;20.40;99.90;;;;;;5031082;28;20209;-69
2021/08/15 03:29:53;;;;;;;4.63;4.10;;;20.40;99.90;;;;;;5030939;28;20233;-69
2021/08/15 03:32:20;;;;;;;6.13;4.10;;;20.40;99.90;;;;;;5030869;28;20209;-70
2021/08/15 03:34:47;;;;;;;5.80;4.23;;;20.40;99.90;;;;;;5030726;28;20208;-70
2021/08/15 03:37:13;;;;;;;4.13;3.80;;;20.40;99.90;;;;;;5030802;28;20263;-70
2021/08/15 03:39:40;;;;;;;5.63;4.30;;;20.40;99.90;;;;;;5030737;28;20263;-70
2021/08/15 03:42:06;;;;;;;9.70;4.17;;;20.40;99.90;;;;;;5030784;28;20209;-70
2021/08/15 03:44:33;;;;;;;5.97;4.10;;;20.20;99.90;;;;;;5030493;28;20256;-70
2021/08/15 03:47:01;;;;;;;7.43;4.10;;;20.20;99.90;;;;;;5030718;28;20634;-71
2021/08/15 03:49:28;;;;;;;7.17;4.20;;;20.20;99.90;;;;;;5030264;28;20237;-70
2021/08/15 03:51:55;;;;;;;8.53;3.97;;;20.10;99.90;;;;;;5030323;28;20213;-70
2021/08/15 03:54:22;;;;;;;6.93;4.10;;;20.20;99.90;;;;;;5030481;28;20345;-70
2021/08/15 03:56:49;;;;;;;8.93;3.83;;;20.20;99.90;;;;;;5030295;28;20208;-70
2021/08/15 03:59:16;;;;;;;4.93;4.07;;;20.10;99.90;;;;;;5030205;28;20314;-70
2021/08/15 04:01:44;;;;;;;8.93;4.50;;;20.10;99.90;;;;;;5030067;28;20670;-70
2021/08/15 04:04:12;;;;;;;4.57;4.03;;;20.10;99.90;;;;;;5030230;28;20201;-71
2021/08/15 04:06:39;;;;;;;5.87;4.53;;;20.10;99.90;;;;;;5030165;28;20310;-71
2021/08/15 04:09:06;;;;;;;6.53;4.30;;;20.10;99.90;;;;;;5029687;28;20845;-71
2021/08/15 04:11:33;;;;;;;6.50;4.20;;;20.10;99.90;;;;;;5029819;28;20663;-71
2021/08/15 04:14:00;;;;;;;9.07;3.90;;;20.10;99.90;;;;;;5030047;28;20201;-70
2021/08/15 04:16:26;;;;;;;9.23;4.30;;;20.00;99.90;;;;;;5030044;28;20208;-70
2021/08/15 04:18:54;;;;;;;8.30;4.50;;;20.00;99.90;;;;;;5029968;28;20254;-70
2021/08/15 04:21:22;;;;;;;4.77;3.83;;;20.10;99.90;;;;;;5029658;28;20205;-71
2021/08/15 04:23:49;;;;;;;6.23;3.90;;;20.10;99.90;;;;;;5029797;28;20270;-71
2021/08/15 04:26:16;;;;;;;7.80;4.80;;;20.10;99.90;;;;;;5029963;28;20274;-71
2021/08/15 04:28:42;;;;;;;7.10;4.77;;;20.10;99.90;;;;;;5029582;28;20225;-71
2021/08/15 04:31:09;;;;;;;5.83;4.10;;;20.00;99.90;;;;;;5029831;28;20591;-71
2021/08/15 04:33:35;;;;;;;5.87;4.23;;;20.10;99.90;;;;;;5029550;28;20204;-71
2021/08/15 04:36:02;;;;;;;9.00;4.90;;;20.00;99.90;;;;;;5029596;28;20578;-71
2021/08/15 04:38:30;;;;;;;5.90;4.37;;;20.00;99.90;;;;;;5029570;28;20294;-72
2021/08/15 04:40:56;;;;;;;6.40;3.83;;;20.10;99.90;;;;;;5029613;28;20267;-71
2021/08/15 04:43:23;;;;;;;6.33;4.07;;;20.10;99.90;;;;;;5029598;28;20504;-71
2021/08/15 04:45:50;;;;;;;7.40;4.17;;;20.10;99.90;;;;;;5029275;28;20232;-71
2021/08/15 04:48:17;;;;;;;6.47;4.27;;;20.20;99.90;;;;;;5029383;28;20225;-71
2021/08/15 04:50:44;;;;;;;6.07;3.93;;;20.20;99.90;;;;;;5029383;28;20258;-71
2021/08/15 04:53:11;;;;;;;7.23;4.23;;;20.20;99.90;;;;;;5029325;28;20289;-70
2021/08/15 04:55:39;;;;;;;8.57;4.57;;;20.30;99.90;;;;;;5029116;28;20209;-71
2021/08/15 04:58:06;;;;;;;6.33;4.00;;;20.30;99.90;;;;;;5028669;28;20205;-71
2021/08/15 05:00:33;;;;;;;7.33;4.33;;;20.20;99.90;;;;;;5029099;28;20262;-71
2021/08/15 05:03:00;;;;;;;6.30;4.17;;;20.20;99.90;;;;;;5028783;28;20618;-71
2021/08/15 05:05:27;;;;;;;8.43;4.33;;;20.10;99.90;;;;;;5028908;28;20290;-71
2021/08/15 05:07:54;;;;;;;8.83;4.73;;;19.90;99.90;;;;;;5028864;28;20229;-71
2021/08/15 05:10:20;;;;;;;7.27;4.20;;;19.70;99.90;;;;;;5028846;28;20583;-70
2021/08/15 05:12:49;;;;;;;4.27;3.70;;;19.50;99.90;;;;;;5029053;28;20209;-70
2021/08/15 05:15:16;;;;;;;8.33;4.67;;;19.40;99.90;;;;;;5028919;28;20205;-70
2021/08/15 05:17:42;;;;;;;8.07;4.23;;;19.40;99.90;;;;;;5029000;28;20213;-69
2021/08/15 05:20:10;;;;;;;9.07;3.63;;;19.60;99.90;;;;;;5028811;28;20674;-70
2021/08/15 05:22:37;;;;;;;6.47;3.97;;;19.70;99.90;;;;;;5028766;28;20205;-69
2021/08/15 05:25:04;;;;;;;4.90;3.77;;;19.70;99.90;;;;;;5028934;28;20271;-69
2021/08/15 05:27:31;;;;;;;8.50;4.40;;;19.60;99.90;;;;;;5028868;28;20205;-69
2021/08/15 05:29:59;;;;;;;7.13;3.90;;;19.40;99.90;;;;;;5028434;28;20271;-69
2021/08/15 05:32:25;;;;;;;8.80;4.30;;;19.40;99.90;;;;;;5027865;28;20678;-69
2021/08/15 05:34:52;;;;;;;6.13;3.73;;;19.30;99.90;;;;;;5028420;28;20204;-69
2021/08/15 05:37:19;;;;;;;9.20;3.90;;;19.40;99.90;;;;;;5028276;28;20691;-68
2021/08/15 05:39:45;;;;;;;5.93;3.67;;;19.30;99.90;;;;;;5028285;28;20236;-69
2021/08/15 05:42:12;;;;;;;9.60;4.00;;;19.20;99.90;;;;;;5028052;28;20609;-69
2021/08/15 05:44:39;;;;;;;9.57;4.13;;;19.20;99.90;;;;;;5028557;28;20213;-70
2021/08/15 05:47:09;;;;;;;5.53;5.03;;;19.40;99.90;;;;;;5028539;28;20208;-70
2021/08/15 05:49:36;;;;;;;6.87;3.97;;;19.40;99.90;;;;;;5028134;28;20753;-70
2021/08/15 05:52:03;;;;;;;7.20;4.80;;;19.50;99.90;;;;;;5028317;28;20267;-70
2021/08/15 05:54:30;;;;;;;6.13;4.10;;;19.50;99.90;;;;;;5028473;28;20849;-70
2021/08/15 05:56:56;;;;;;;8.17;3.97;;;19.60;99.90;;;;;;5028271;28;20258;-69
2021/08/15 05:59:23;;;;;;;7.43;4.30;;;19.80;99.90;;;;;;5027841;28;20784;-69
2021/08/15 06:01:50;;;;;;;8.00;3.97;;;20.00;99.90;;;;;;5028083;28;20212;-69
2021/08/15 06:04:19;;;;;;;6.60;5.10;;;20.20;99.90;;;;;;5028156;28;20300;-69
2021/08/15 06:06:45;;;;;;;7.87;4.50;;;20.20;99.90;;;;;;5027728;28;20683;-69
2021/08/15 06:09:12;;;;;;;9.43;4.33;;;20.20;99.90;;;;;;5027797;28;20687;-68
2021/08/15 06:11:39;;;;;;;6.67;4.27;;;20.30;99.90;;;;;;5028055;28;20213;-69
2021/08/15 06:14:05;;;;;;;8.47;4.77;;;20.40;99.90;;;;;;5028117;28;20240;-68
2021/08/15 06:16:32;;;;;;;7.57;3.97;;;20.50;99.90;;;;;;5028230;28;20205;-69
2021/08/15 06:18:59;;;;;;;5.37;3.53;;;20.60;99.90;;;;;;5028006;28;20263;-68
2021/08/15 06:21:27;;;;;;;7.43;4.03;;;20.60;99.90;;;;;;5027774;28;20664;-68
2021/08/15 06:23:53;;;;;;;4.90;4.00;;;20.70;99.90;;;;;;5028020;28;20259;-68
2021/08/15 06:26:20;;;;;;;8.63;3.83;;;20.80;99.90;;;;;;5028019;28;20208;-68
2021/08/15 06:28:46;;;;;;;4.90;4.00;;;20.90;99.90;;;;;;5027853;28;20711;-69
2021/08/15 06:31:13;;;;;;;4.93;3.83;;;21.00;99.90;;;;;;5028134;28;20290;-69
2021/08/15 06:33:40;;;;;;;7.43;3.83;;;21.10;99.90;;;;;;5027975;28;20205;-69
2021/08/15 06:36:06;;;;;;;6.10;4.30;;;21.10;99.90;;;;;;5027958;28;20760;-69
2021/08/15 06:38:34;;;;;;;8.07;4.20;;;21.20;99.90;;;;;;5027678;28;20217;-69
2021/08/15 06:41:01;;;;;;;5.80;3.90;;;21.20;99.90;;;;;;5027919;28;20216;-69
2021/08/15 06:43:28;;;;;;;4.57;3.53;;;21.30;99.90;;;;;;5028120;28;20228;-69
2021/08/15 06:45:54;;;;;;;7.10;3.83;;;21.30;99.90;;;;;;5031371;28;20213;-69
2021/08/15 06:48:22;;;;;;;6.97;3.80;;;21.30;99.90;;;;;;5031558;28;20295;-69
2021/08/15 06:50:53;;;;;;;5.72;3.78;;;21.30;99.90;;;;;;5031383;28;20228;-69
2021/08/15 06:53:20;;;;;;;9.00;4.30;;;21.40;99.90;;;;;;5031727;28;20626;-69
2021/08/15 06:55:48;;;;;;;11.75;3.97;;;21.40;99.90;;;;;;5031645;28;20649;-69
2021/08/15 06:58:14;;;;;;;7.37;4.33;;;21.40;99.90;;;;;;5031368;28;20216;-69
2021/08/15 07:00:41;;;;;;;6.63;4.30;;;21.30;99.90;;;;;;5031342;28;20651;-70
2021/08/15 07:03:08;;;;;;;9.47;4.50;;;21.00;99.90;;;;;;5031758;28;20213;-70
2021/08/15 07:05:35;;;;;;;9.07;3.80;;;20.80;99.90;;;;;;5031767;28;20264;-70
2021/08/15 07:08:01;;;;;;;7.97;4.10;;;20.70;99.90;;;;;;5031129;28;20235;-70
2021/08/15 07:10:28;;;;;;;8.43;4.07;;;20.60;99.90;;;;;;5031340;28;20319;-72
2021/08/15 07:12:58;;;;;;;8.57;4.17;;;20.50;99.90;;;;;;5031347;28;20231;-70
2021/08/15 07:15:28;;;;;;;7.60;4.23;;;20.40;99.90;;;;;;5031359;28;20241;-71
2021/08/15 07:17:55;;;;;;;10.30;4.83;;;20.50;99.90;;;;;;5030773;28;20219;-72
2021/08/15 07:20:22;;;;;;;8.73;4.57;;;20.50;99.90;;;;;;5030377;28;20693;-72
2021/08/15 07:22:49;;;;;;;7.97;3.87;;;20.40;99.90;;;;;;5031118;28;20209;-71
2021/08/15 07:25:17;;;;;;;10.53;4.50;;;20.40;99.90;;;;;;5031075;28;20667;-71
2021/08/15 07:27:44;;;;;;;8.47;4.50;;;20.50;99.90;;;;;;5031224;28;20270;-71
2021/08/15 07:30:13;;;;;;;9.47;4.30;;;20.50;99.90;;;;;;5031168;28;20260;-71
2021/08/15 07:32:49;;;;;;;11.10;4.30;;;20.50;99.90;;;;;;5040925;28;20201;-70
2021/08/15 07:35:16;;;;;;;8.57;3.90;;;20.60;99.90;;;;;;5030492;28;20192;-71
2021/08/15 07:37:43;;;;;;;7.70;4.43;;;20.80;99.90;;;;;;5041321;28;20205;-71
2021/08/15 07:40:10;;;;;;;9.30;4.60;;;20.80;99.90;;;;;;5038802;28;20250;-71
2021/08/15 07:42:37;;;;;;;10.13;4.63;;;20.90;99.90;;;;;;5039526;28;20217;-70
2021/08/15 07:45:05;;;;;;;7.57;4.20;;;20.80;99.90;;;;;;5039248;28;20204;-72
2021/08/15 07:47:33;;;;;;;4.73;3.87;;;21.00;99.90;;;;;;5030134;28;20243;-71
2021/08/15 07:50:00;;;;;;;10.73;4.27;;;21.00;99.90;;;;;;5030031;28;20228;-72
2021/08/15 07:52:26;;;;;;;7.53;3.90;;;21.10;99.90;;;;;;5030126;28;20197;-71
2021/08/15 07:54:53;;;;;;;9.13;4.13;;;21.10;99.90;;;;;;5029051;28;20540;-72
2021/08/15 07:57:20;;;;;;;7.22;4.03;;;21.40;99.90;;;;;;5032168;28;20741;-69
2021/08/15 07:59:47;;;;;;;9.53;4.20;;;21.50;99.90;;;;;;5045710;28;20239;-69
2021/08/15 08:02:14;;;;;;;7.17;4.50;;;21.40;99.90;;;;;;5027012;28;20205;-69
2021/08/15 08:04:42;;;;;;;10.40;4.23;;;21.40;99.90;;;;;;5046406;28;20484;-69
2021/08/15 08:07:09;;;;;;;8.23;3.73;;;21.50;99.90;;;;;;5037386;28;20312;-69
2021/08/15 08:09:36;;;;;;;9.30;4.13;;;21.30;99.90;;;;;;5026502;28;20233;-69
2021/08/15 08:12:04;;;;;;;10.17;5.10;;;21.30;99.90;;;;;;5031354;28;20622;-69
2021/08/15 08:14:30;;;;;;;10.57;4.83;;;21.40;99.90;;;;;;5026549;28;20209;-75
2021/08/15 08:16:57;;;;;;;7.53;4.30;;;21.50;99.90;;;;;;5026024;28;20240;-72
2021/08/15 08:19:23;;;;;;;5.90;4.40;;;21.70;99.90;;;;;;5027440;28;20216;-69
2021/08/15 08:21:51;;;;;;;8.88;4.05;;;21.80;99.90;;;;;;5030213;28;20236;-69
2021/08/15 08:24:18;;;;;;;9.18;4.55;;;21.90;99.90;;;;;;5026504;28;20209;-69
2021/08/15 08:26:44;;;;;;;8.13;4.30;;;22.00;99.90;;;;;;5026144;28;20649;-69
2021/08/15 08:29:11;;;;;;;8.00;4.25;;;22.10;99.90;;;;;;5026155;28;20209;-69
2021/08/15 08:31:37;;;;;;;8.50;3.80;;;22.00;99.90;;;;;;5026116;28;20287;-69
2021/08/15 08:34:04;;;;;;;7.85;4.20;;;22.00;99.90;;;;;;5030478;28;20667;-69
2021/08/15 08:36:31;;;;;;;7.88;4.43;;;22.10;99.90;;;;;;5046043;28;20715;-69
2021/08/15 08:38:59;;;;;;;10.40;4.85;;;22.20;99.90;;;;;;5045661;28;20215;-69
2021/08/15 08:41:25;;;;;;;5.47;4.43;;;22.20;99.90;;;;;;5045982;28;20208;-69
2021/08/15 08:43:52;;;;;;;6.28;3.88;;;22.10;99.90;;;;;;5045816;28;20305;-69
2021/08/15 08:46:19;;;;;;;7.13;3.67;;;22.20;99.90;;;;;;5037697;28;20305;-69
2021/08/15 08:48:46;;;;;;;4.80;3.85;;;22.30;99.90;;;;;;5037054;28;20287;-69
2021/08/15 08:51:13;;;;;;;4.03;3.58;;;22.50;99.70;;;;;;5037095;28;20610;-69
2021/08/15 08:53:39;;;;;;;6.00;3.97;;;22.50;99.60;;;;;;5034729;28;20200;-69
2021/08/15 08:56:07;;;;;;;6.00;3.97;;;22.70;99.90;;;;;;5035853;28;20230;-71
2021/08/15 08:58:34;;;;;;;5.83;3.17;;;22.70;98.90;;;;;;5035006;28;20283;-69
2021/08/15 09:01:01;;;;;;;4.90;3.33;;;22.60;98.20;;;;;;5034006;28;20297;-69
2021/08/15 09:03:27;;;;;;;4.13;3.72;;;22.70;98.40;;;;;;5034297;28;20247;-70
2021/08/15 09:05:55;;;;;;;5.38;3.60;;;22.60;98.10;;;;;;5034548;28;20307;-69
2021/08/15 09:08:27;;;;;;;4.63;3.60;;;22.50;98.50;;;;;;5037658;28;20740;-70
2021/08/15 09:11:09;;;;;;;6.35;3.80;;;22.60;98.60;;;;;;5045330;28;20258;-70
2021/08/15 09:13:37;;;;;;;6.13;3.95;;;22.60;99.10;;;;;;5045322;28;20240;-70
2021/08/15 09:16:04;;;;;;;4.18;3.78;;;22.70;98.60;;;;;;5045094;28;20649;-71
2021/08/15 09:18:31;;;;;;;7.53;4.40;;;22.70;99.00;;;;;;5045306;28;20208;-72
2021/08/15 09:20:58;;;;;;;3.97;3.38;;;22.80;99.10;;;;;;5044906;28;20236;-70
2021/08/15 09:23:28;;;;;;;4.22;3.45;;;22.90;98.50;;;;;;5036154;28;20282;-70
2021/08/15 09:26:16;;;;;;;4.80;3.65;;;22.90;97.90;;;;;;5033803;28;20578;-70
2021/08/15 09:28:47;;;;;;;6.93;3.78;;;23.10;98.30;;;;;;5021987;28;20259;-70
2021/08/15 09:31:19;;;;;;;6.95;4.03;;;23.10;98.10;;;;;;5024525;28;21032;-70
2021/08/15 09:33:46;;;;;;;4.70;3.63;;;23.10;97.60;;;;;;5024932;28;20221;-70
2021/08/15 09:36:12;;;;;;;7.80;3.75;;;23.20;97.90;;;;;;5024697;28;20675;-70
2021/08/15 09:38:44;;;;;;;6.15;3.92;;;23.10;97.50;;;;;;5024310;28;20796;-69
2021/08/15 09:41:23;;;;;;;5.95;3.70;;;23.20;98.20;;;;;;5024742;28;20571;-69
2021/08/15 09:44:21;;;;;;;4.65;3.83;;;23.40;97.70;;;;;;5024862;28;20228;-69
2021/08/15 09:47:02;;;;;;;4.72;3.55;;;23.50;97.90;;;;;;5026793;28;20197;-69
2021/08/15 09:49:34;;;;;;;4.57;3.80;;;23.60;97.40;;;;;;5024635;28;20189;-70
2021/08/15 09:52:01;;;;;;;4.80;3.33;;;23.70;97.40;;;;;;5024627;28;20231;-73
2021/08/15 09:54:28;;;;;;;4.50;3.80;;;23.80;97.30;;;;;;5025244;28;20224;-73
2021/08/15 09:56:56;;;;;;;6.68;3.60;;;23.80;97.30;;;;;;5024902;28;20224;-75
2021/08/15 09:59:26;;;;;;;6.40;4.07;;;23.90;97.50;;;;;;5038085;28;20242;-70
2021/08/15 10:01:54;;;;;;;5.68;3.55;;;24.00;97.10;;;;;;5033341;28;20232;-70
2021/08/15 10:04:22;;;;;;;4.35;3.90;;;24.00;97.70;;;;;;5028266;28;20225;-70
2021/08/15 10:06:51;;;;;;;4.13;3.72;;;24.20;97.80;;;;;;5027813;28;20769;-70
2021/08/15 10:09:19;;;;;;;4.28;3.80;;;24.30;97.60;;;;;;5027889;28;20258;-70
2021/08/15 10:11:46;;;;;;;4.47;3.90;;;24.40;97.20;;;;;;5027523;28;20334;-70
2021/08/15 10:14:14;;;;;;;6.15;3.88;;;24.40;96.60;;;;;;5034063;28;20614;-70
2021/08/15 10:16:46;;;;;;;5.65;4.25;;;24.50;96.40;;;;;;5029771;28;20201;-71
2021/08/15 10:19:16;;;;;;;7.35;3.88;;;24.50;94.80;;;;;;5044575;28;20229;-70
2021/08/15 10:21:45;;;;;;;6.13;4.45;;;24.40;94.80;;;;;;5048558;28;20254;-70
2021/08/15 10:24:14;;;;;;;9.15;4.28;;;24.50;95.20;;;;;;5048125;28;20261;-70
2021/08/15 10:26:46;;;;;;;4.22;3.67;;;24.60;95.70;;;;;;5045761;28;20208;-70
2021/08/15 10:29:33;;;;;;;8.63;4.53;;;24.80;95.70;;;;;;5048354;28;20659;-70
2021/08/15 10:32:09;;;;;;;6.13;4.05;;;25.00;95.80;;;;;;5048170;28;20324;-70
2021/08/15 10:35:15;;;;;;;13.45;9.95;;;24.90;95.60;;;;;;5048797;28;20218;-70
2021/08/15 10:37:42;;;;;;;5.32;4.65;;;24.90;96.30;;;;;;5048045;28;20215;-70
2021/08/15 10:40:57;;;;;;;6.82;4.60;;;25.00;96.00;;;;;;5048101;28;20212;-70
2021/08/15 10:44:09;;;;;;;7.28;4.68;;;24.90;95.40;;;;;;5047815;28;20267;-70
2021/08/15 10:46:37;;;;;;;4.40;4.00;;;25.00;95.30;;;;;;5048041;28;20580;-70
2021/08/15 10:49:07;;;;;;;8.63;4.82;;;24.80;94.60;;;;;;5047932;28;20674;-70
2021/08/15 10:51:54;;;;;;;5.45;4.35;;;24.70;94.10;;;;;;5047911;28;20263;-70
2021/08/15 10:55:07;;;;;;;6.13;4.47;;;24.80;94.80;;;;;;5047775;28;20196;-70
2021/08/15 10:57:46;;;;;;;6.75;4.57;;;24.80;95.60;;;;;;5048133;28;20199;-70
2021/08/15 11:00:45;;;;;;;10.52;5.20;;;24.90;95.60;;;;;;5047451;28;20242;-70
2021/08/15 11:03:53;;;;;;;8.35;4.57;;;24.70;95.10;;;;;;5047667;28;20298;-70
2021/08/15 11:06:48;;;;;;;6.95;5.20;;;24.50;94.80;;;;;;4985504;28;20206;-70
2021/08/15 11:09:16;;;;;;;8.23;5.22;;;24.30;95.30;;;;;;4985869;28;20504;-70
2021/08/15 11:12:10;;;;;;;8.38;5.60;;;24.30;96.20;;;;;;5028297;28;20305;-70
2021/08/15 11:14:53;;;;;;;7.07;4.55;;;24.40;96.40;;;;;;5046320;28;20207;-70
2021/08/15 11:17:20;;;;;;;8.30;4.95;;;24.60;96.20;;;;;;5031424;28;20206;-72
2021/08/15 11:19:50;;;;;;;7.32;4.53;;;24.70;95.90;;;;;;5036979;28;20654;-72
2021/08/15 11:22:28;;;;;;;5.85;4.50;;;24.90;95.80;;;;;;5038775;28;20202;-70
2021/08/15 11:24:58;;;;;;;5.45;4.50;;;24.90;95.10;;;;;;5041334;28;20707;-69
2021/08/15 11:27:28;;;;;;;5.13;4.32;;;25.00;95.50;;;;;;5047338;28;20248;-70
2021/08/15 11:29:57;;;;;;;6.35;4.38;;;25.00;94.90;;;;;;5034801;28;20196;-70
2021/08/15 11:32:25;;;;;;;15.70;4.95;;;25.00;95.10;;;;;;5049356;28;20248;-70
2021/08/15 11:34:54;;;;;;;6.38;4.68;;;25.30;96.00;;;;;;5049335;28;20223;-70
2021/08/15 11:37:24;;;;;;;7.63;4.80;;;25.60;95.40;;;;;;5049123;28;20205;-70
2021/08/15 11:39:51;;;;;;;4.80;4.30;;;25.80;93.80;;;;;;5048937;28;20208;-70
2021/08/15 11:42:20;;;;;;;6.25;4.32;;;26.00;93.40;;;;;;5049338;28;20228;-71
2021/08/15 11:44:56;;;;;;;4.88;4.32;;;26.20;93.40;;;;;;5048973;28;20216;-70
2021/08/15 11:47:25;;;;;;;6.00;4.75;;;26.10;92.90;;;;;;5049729;28;20195;-70
2021/08/15 11:49:53;;;;;;;7.18;4.75;;;25.90;92.90;;;;;;5050554;28;20297;-70
2021/08/15 11:52:23;;;;;;;5.78;4.40;;;25.60;93.50;;;;;;5050531;28;20285;-70
2021/08/15 11:54:50;;;;;;;5.38;4.50;;;25.60;93.80;;;;;;5050383;28;20254;-70
2021/08/15 11:57:17;;;;;;;6.07;4.38;;;25.90;93.60;;;;;;5050255;28;20696;-70
2021/08/15 11:59:46;;;;;;;5.85;4.57;;;26.10;93.20;;;;;;5050045;28;20247;-70
2021/08/15 12:02:18;;;;;;;6.53;4.80;;;26.10;93.70;;;;;;5050514;28;20208;-70
2021/08/15 12:04:47;;;;;;;6.35;4.50;;;26.20;93.50;;;;;;5049797;28;20791;-70
2021/08/15 12:07:22;;;;;;;4.97;4.10;;;26.40;93.90;;;;;;5050025;28;20278;-70
2021/08/15 12:10:04;;;;;;;9.90;5.00;;;26.20;93.40;;;;;;5049989;28;20265;-70
2021/08/15 12:12:31;;;;;;;5.70;4.43;;;26.10;93.70;;;;;;5049447;28;20227;-70
2021/08/15 12:15:08;;;;;;;5.18;4.60;;;26.20;93.40;;;;;;5049992;28;20212;-71
2021/08/15 12:17:50;;;;;;;7.28;4.47;;;26.50;94.00;;;;;;5050102;28;20214;-70
2021/08/15 12:20:21;;;;;;;6.40;4.82;;;26.70;92.90;;;;;;5049739;28;20843;-70
2021/08/15 12:22:50;;;;;;;6.45;4.97;;;26.50;93.10;;;;;;5049944;28;20700;-70
2021/08/15 12:25:21;;;;;;;9.77;5.55;;;26.20;93.30;;;;;;5049476;28;20775;-70
2021/08/15 12:27:47;;;;;;;5.70;4.78;;;26.00;93.60;;;;;;5049790;28;20284;-70
2021/08/15 12:30:27;;;;;;;6.43;4.70;;;25.80;93.60;;;;;;5049433;28;20735;-70
2021/08/15 12:32:53;;;;;;;8.40;6.18;;;25.80;94.00;;;;;;5049585;28;20196;-70
2021/08/15 12:35:25;;;;;;;6.45;4.57;;;25.60;93.80;;;;;;5049631;28;20204;-70
2021/08/15 12:37:54;;;;;;;5.30;4.15;;;25.60;93.70;;;;;;5049418;28;20287;-70
2021/08/15 12:40:28;;;;;;;8.15;4.93;;;25.60;94.00;;;;;;5049553;28;20216;-70
2021/08/15 12:42:57;;;;;;;7.38;4.28;;;25.60;94.10;;;;;;5048346;28;20281;-70
2021/08/15 12:45:32;;;;;;;9.50;4.80;;;25.90;93.90;;;;;;5049006;28;20689;-70
2021/08/15 12:48:00;;;;;;;6.65;4.38;;;26.20;93.70;;;;;;5049255;28;20258;-70
2021/08/15 12:50:27;;;;;;;5.65;4.38;;;26.40;93.50;;;;;;5049160;28;20208;-70
2021/08/15 12:52:56;;;;;;;7.07;4.40;;;26.70;93.90;;;;;;5048999;28;20285;-70
2021/08/15 12:55:25;;;;;;;6.05;4.43;;;27.00;93.20;;;;;;5049389;28;20208;-70